Pagrindinis puslapis
METAR-TAF:

METAR-TAF

Oro uostai :

In Aménas, Alžyras

platuma: 28-03N, ilguma: 009-38E, Aukštis: 562 m

Dabartinis oras

Ataskaita buvo paskelbta 1 valandą ir 18 minutes, ne 13:00 UTC
Vėjas 11 kt iš Šiaurės/Šiaurės Vakarų, svyruoja nuo Vakarų/Šiaurės Vakarų ir Šiaurės/Šiaurės Rytų
Temperatūra 42°C
Slėgis 1011 hPa
Matomumas: 8000 m

METAR: DAUZ 251300Z 34011KT 300V020 8000 NSC 42/// Q1011

Laikas: 15:18 (14:18 UTC)

Prognozė

Ataskaita buvo paskelbta 3 valandos ir 18 minutes, ne 11:00 UTC
Prognozė galioja nuo 25 metu 12 UTC su 26 metu 12 UTC
Vėjas 10 kt iš Šiaurės Vakarų
Matomumas: 6000 m
Tikimybė 40% :
Laikinai
nuo 25 metu 14 UTC su 25 metu 20 UTC
Vėjas 15 kt iš Vakarų su gūsio iki 30 kt
Matomumas: 3000 m
Mažai debesys ne aukštis 4600 ft, Liūtiniai kamuoliniai debesys.
Smėlio pustymas pažeme
Tapsmas
nuo 25 metu 20 UTC su 25 metu 22 UTC
Vėjas 10 kt iš Rytų/Šiaurės Rytų

TAF: DAUZ 251100Z 2512/2612 32010KT 6000 NSC PROB40 TEMPO 2514/2520 28015G30KT 3000 DRSA FEW046CB BECMG 2520/2522 06010KT

Orai ataskaitas ir orų prognozės (METAR, TAF).

turimą stotys yra geltonos ir raudonos taškus žemėlapyje.

Perkelti pele per norėdami pamatyti stoties vardą.

Tada spustelėkite, norėdami matyti oro stebėjimo ir prognozės.

Norėdami pakeisti žemėlapį: spustelėkite ant žalios mygtukų su juodo kryžiaus žemyn,; žalią mygtuką su brūkšneliu, jei norite nutolinti; arba žalių rodyklių gretimoms žemėlapius.


METAR-TAF: